Time;durP1;ratioP1;P1;durP2;ratioP2;P2;SDS_P1;SDS_P2;PMS_P1;PMS_P2;Temp;Humidity;BMP_temperature;BMP_pressure;BME280_temperature;BME280_humidity;BME280_pressure;Samples;Min_cycle;Max_cycle;Signal;HPM_P1;HPM_P2
2022/03/09 00:00:17;;;;;;;30.13;17.63;;;;;;;3.40;100.00;99542.75;5030226;28;20296;-64
2022/03/09 00:02:44;;;;;;;33.43;19.67;;;;;;;3.41;100.00;99547.00;5038373;28;20228;-64
2022/03/09 00:05:11;;;;;;;31.03;17.83;;;;;;;3.40;100.00;99537.69;5042629;28;20204;-64
2022/03/09 00:07:38;;;;;;;29.23;17.40;;;;;;;3.41;100.00;99532.63;5042263;28;20658;-64
2022/03/09 00:10:06;;;;;;;30.43;18.23;;;;;;;3.39;100.00;99531.81;5030638;28;20288;-64
2022/03/09 00:12:34;;;;;;;28.60;18.30;;;;;;;3.46;100.00;99540.22;5045592;28;20243;-64
2022/03/09 00:15:02;;;;;;;28.47;18.40;;;;;;;3.43;100.00;99536.00;5036189;28;20699;-64
2022/03/09 00:17:28;;;;;;;29.40;17.87;;;;;;;3.38;100.00;99531.78;5038873;28;20291;-64
2022/03/09 00:19:55;;;;;;;27.93;18.10;;;;;;;3.35;100.00;99532.63;5041893;28;20287;-64
2022/03/09 00:22:22;;;;;;;27.13;16.90;;;;;;;3.31;100.00;99525.03;5048642;28;20217;-64
2022/03/09 00:24:50;;;;;;;25.63;16.90;;;;;;;3.28;100.00;99530.09;5034064;28;20670;-64
2022/03/09 00:27:17;;;;;;;26.87;16.87;;;;;;;3.22;100.00;99536.00;5042092;28;20664;-64
2022/03/09 00:29:45;;;;;;;27.53;17.57;;;;;;;3.24;100.00;99528.38;5053886;28;20812;-64
2022/03/09 00:32:13;;;;;;;27.53;17.73;;;;;;;3.19;100.00;99520.81;5043171;28;20661;-64
2022/03/09 00:34:40;;;;;;;24.20;16.87;;;;;;;3.04;100.00;99525.81;5047629;28;20526;-64
2022/03/09 00:37:07;;;;;;;23.63;17.43;;;;;;;2.97;100.00;99519.91;5045060;28;20193;-63
2022/03/09 00:39:34;;;;;;;24.57;16.67;;;;;;;2.77;100.00;99506.38;5040494;28;20201;-64
2022/03/09 00:42:01;;;;;;;28.77;17.50;;;;;;;2.78;100.00;99512.28;5034246;28;20241;-63
2022/03/09 00:44:27;;;;;;;31.03;17.97;;;;;;;2.73;100.00;99508.88;5053305;28;20233;-64
2022/03/09 00:46:56;;;;;;;32.30;18.43;;;;;;;2.66;100.00;99508.00;5053732;28;20338;-64
2022/03/09 00:49:23;;;;;;;32.00;20.03;;;;;;;2.62;100.00;99516.44;5042433;28;20202;-63
2022/03/09 00:51:49;;;;;;;33.87;19.67;;;;;;;2.62;100.00;99516.44;5046829;28;20197;-64
2022/03/09 00:54:16;;;;;;;33.30;18.50;;;;;;;2.61;100.00;99509.69;5041507;28;20201;-66
2022/03/09 00:56:43;;;;;;;31.97;19.03;;;;;;;2.63;100.00;99505.47;5032874;28;20233;-66
2022/03/09 00:59:11;;;;;;;34.23;18.93;;;;;;;2.62;100.00;99506.31;5039980;28;20200;-65
2022/03/09 01:01:38;;;;;;;34.07;19.77;;;;;;;2.57;100.00;99506.31;5036641;28;20295;-66
2022/03/09 01:04:06;;;;;;;32.67;19.80;;;;;;;2.52;100.00;99504.59;5043381;28;20284;-66
2022/03/09 01:06:33;;;;;;;37.03;21.40;;;;;;;2.47;100.00;99496.13;5051789;28;20228;-65
2022/03/09 01:09:01;;;;;;;36.30;20.03;;;;;;;2.46;100.00;99489.38;5053102;28;20203;-66
2022/03/09 01:11:28;;;;;;;34.30;20.47;;;;;;;2.35;100.00;99485.97;5052331;28;20189;-66
2022/03/09 01:13:55;;;;;;;37.83;22.17;;;;;;;2.31;100.00;99486.78;5047506;28;20648;-65
2022/03/09 01:16:22;;;;;;;35.80;20.93;;;;;;;2.20;100.00;99470.75;5047798;28;20287;-66
2022/03/09 01:18:49;;;;;;;38.67;21.87;;;;;;;2.20;100.00;99468.22;5047386;28;20288;-65
2022/03/09 01:21:17;;;;;;;40.83;21.87;;;;;;;2.25;100.00;99472.44;5035053;28;20284;-66
2022/03/09 01:23:44;;;;;;;38.63;21.20;;;;;;;2.19;100.00;99471.56;5052156;28;20295;-66
2022/03/09 01:26:11;;;;;;;35.93;20.27;;;;;;;2.19;100.00;99469.06;5053099;28;20639;-66
2022/03/09 01:28:38;;;;;;;36.27;21.53;;;;;;;2.13;100.00;99472.41;5049414;28;20285;-65
2022/03/09 01:31:06;;;;;;;33.00;20.67;;;;;;;2.01;100.00;99465.59;5052527;28;20287;-65
2022/03/09 01:33:33;;;;;;;38.47;21.40;;;;;;;2.05;100.00;99471.50;5044377;28;20284;-66
2022/03/09 01:35:59;;;;;;;36.17;20.20;;;;;;;2.04;100.00;99469.81;5047256;28;20211;-65
2022/03/09 01:38:28;;;;;;;34.77;20.23;;;;;;;1.99;100.00;99477.38;5052169;28;20200;-66
2022/03/09 01:40:55;;;;;;;36.43;21.30;;;;;;;1.98;100.00;99470.63;5052463;28;20205;-66
2022/03/09 01:43:22;;;;;;;33.47;20.97;;;;;;;1.96;100.00;99471.47;5052457;28;20228;-66
2022/03/09 01:45:48;;;;;;;43.80;20.57;;;;;;;1.92;100.00;99465.53;5050057;28;20213;-66
2022/03/09 01:48:15;;;;;;;34.87;21.30;;;;;;;1.95;100.00;99475.66;5052396;28;20588;-66
2022/03/09 01:50:43;;;;;;;39.07;22.27;;;;;;;1.98;100.00;99465.56;5052855;28;20279;-66
2022/03/09 01:53:11;;;;;;;39.90;21.43;;;;;;;2.05;100.00;99477.41;5046346;28;20205;-65
2022/03/09 01:55:40;;;;;;;36.37;22.23;;;;;;;2.03;100.00;99463.94;5044841;28;20204;-65
2022/03/09 01:58:07;;;;;;;38.87;21.63;;;;;;;2.06;100.00;99474.06;5072392;28;20289;-66
2022/03/09 02:00:34;;;;;;;39.00;21.70;;;;;;;2.07;100.00;99475.72;5071840;28;20209;-66
2022/03/09 02:03:01;;;;;;;38.57;22.77;;;;;;;2.10;100.00;99474.91;5072169;28;20311;-66
2022/03/09 02:05:28;;;;;;;38.83;22.00;;;;;;;2.10;100.00;99475.75;5065061;28;20200;-64
2022/03/09 02:10:41;;;;;;;35.40;22.03;;;;;;;2.17;100.00;99488.41;5057531;28;20201;-63
2022/03/09 02:13:08;;;;;;;35.57;20.37;;;;;;;2.09;100.00;99463.97;5061298;28;20223;-64
2022/03/09 02:15:35;;;;;;;37.07;21.97;;;;;;;2.21;100.00;99483.38;5065519;28;20204;-64
2022/03/09 02:18:02;;;;;;;36.87;22.40;;;;;;;2.23;100.00;99485.94;5071864;28;20279;-64
2022/03/09 02:20:29;;;;;;;36.67;21.77;;;;;;;2.22;100.00;99484.25;5068366;28;20682;-63
2022/03/09 02:22:58;;;;;;;40.30;22.57;;;;;;;2.11;100.00;99467.31;5051729;28;20228;-63
2022/03/09 02:25:25;;;;;;;41.10;21.53;;;;;;;2.19;100.00;99486.75;5067038;28;20679;-64
2022/03/09 02:27:52;;;;;;;37.00;19.93;;;;;;;2.08;100.00;99482.47;5064420;28;20212;-63
2022/03/09 02:30:20;;;;;;;37.20;20.63;;;;;;;2.09;100.00;99493.44;5053085;28;20673;-64
2022/03/09 02:32:49;;;;;;;36.63;22.20;;;;;;;2.03;100.00;99488.38;5063619;28;20583;-64
2022/03/09 02:35:17;;;;;;;38.33;22.87;;;;;;;2.03;100.00;99481.63;5071798;28;20557;-64
2022/03/09 02:37:44;;;;;;;38.67;20.83;;;;;;;2.04;100.00;99490.03;5071259;28;20282;-64
2022/03/09 02:40:15;;;;;;;40.80;22.83;;;;;;;2.08;100.00;99487.53;5071468;28;20287;-63
2022/03/09 02:42:43;;;;;;;40.17;21.90;;;;;;;2.08;100.00;99485.00;5059631;28;20248;-64
2022/03/09 02:45:11;;;;;;;35.37;21.00;;;;;;;2.05;100.00;99479.09;5051511;28;20209;-64
2022/03/09 02:47:41;;;;;;;37.37;21.20;;;;;;;2.10;100.00;99485.84;5051276;28;20197;-64
2022/03/09 02:50:08;;;;;;;41.13;22.43;;;;;;;2.16;100.00;99496.84;5051442;28;20277;-64
2022/03/09 02:52:38;;;;;;;38.97;21.77;;;;;;;2.21;100.00;99487.59;5051508;28;20607;-64
2022/03/09 02:55:06;;;;;;;37.93;21.37;;;;;;;2.28;100.00;99485.09;5056218;28;20195;-64
2022/03/09 02:57:35;;;;;;;37.20;21.50;;;;;;;2.34;100.00;99479.22;5054064;28;20232;-64
2022/03/09 03:00:01;;;;;;;45.10;24.40;;;;;;;2.35;100.00;99491.03;5051082;28;20744;-66
2022/03/09 03:02:28;;;;;;;39.83;22.93;;;;;;;2.29;100.00;99485.97;5051281;28;20215;-66
2022/03/09 03:04:56;;;;;;;42.37;24.03;;;;;;;2.27;100.00;99482.56;5058210;28;20290;-63
2022/03/09 03:07:22;;;;;;;45.97;26.80;;;;;;;2.24;100.00;99478.34;5060936;28;20205;-64
2022/03/09 03:09:49;;;;;;;52.43;27.80;;;;;;;2.24;100.00;99480.88;5055586;28;20296;-64
2022/03/09 03:12:16;;;;;;;49.40;25.73;;;;;;;2.25;100.00;99484.25;5061203;28;20942;-63
2022/03/09 03:14:44;;;;;;;44.33;27.20;;;;;;;2.16;100.00;99482.53;5068369;28;20298;-64
2022/03/09 03:17:11;;;;;;;46.43;25.23;;;;;;;2.11;100.00;99479.13;5057926;28;20744;-63
2022/03/09 03:19:38;;;;;;;43.27;24.53;;;;;;;1.95;100.00;99455.44;5051287;28;20280;-63
2022/03/09 03:22:05;;;;;;;44.27;24.73;;;;;;;2.09;100.00;99479.13;5061129;28;20222;-64
2022/03/09 03:24:32;;;;;;;33.90;21.90;;;;;;;2.11;100.00;99479.97;5069958;28;20291;-64
2022/03/09 03:26:59;;;;;;;47.47;25.43;;;;;;;2.06;100.00;99488.38;5070007;28;20283;-66
2022/03/09 03:29:26;;;;;;;41.13;25.20;;;;;;;2.01;100.00;99485.81;5056491;28;20724;-65
2022/03/09 03:31:55;;;;;;;40.43;24.43;;;;;;;2.03;100.00;99483.31;5050086;28;20558;-66
2022/03/09 03:34:22;;;;;;;43.57;24.40;;;;;;;2.01;100.00;99483.28;5068901;28;20552;-65
2022/03/09 03:36:48;;;;;;;42.53;25.13;;;;;;;2.01;100.00;99478.22;5070003;28;20192;-65
2022/03/09 03:39:15;;;;;;;42.83;23.20;;;;;;;2.03;100.00;99485.84;5070752;28;20223;-66
2022/03/09 03:41:43;;;;;;;35.70;22.37;;;;;;;2.04;100.00;99485.81;5064730;28;20669;-65
2022/03/09 03:44:09;;;;;;;43.03;23.17;;;;;;;2.04;100.00;99482.44;5050510;28;20219;-66
2022/03/09 03:46:36;;;;;;;41.07;23.27;;;;;;;2.05;100.00;99487.53;5054881;28;20695;-65
2022/03/09 03:49:05;;;;;;;41.77;24.23;;;;;;;2.06;100.00;99484.16;5066033;28;20644;-66
2022/03/09 03:51:32;;;;;;;45.83;24.17;;;;;;;2.07;100.00;99473.19;5070606;28;20291;-66
2022/03/09 03:53:59;;;;;;;47.43;24.47;;;;;;;2.11;100.00;99482.50;5072610;28;20675;-65
2022/03/09 03:56:26;;;;;;;43.90;24.60;;;;;;;1.99;100.00;99456.31;5064400;28;20671;-66
2022/03/09 03:58:53;;;;;;;46.90;25.57;;;;;;;2.10;100.00;99480.78;5054882;28;20242;-66
2022/03/09 04:01:20;;;;;;;55.27;26.83;;;;;;;2.08;100.00;99482.47;5072952;28;20287;-66
2022/03/09 04:03:46;;;;;;;45.80;25.67;;;;;;;2.04;100.00;99485.81;5074754;28;20307;-66
2022/03/09 04:06:15;;;;;;;41.63;25.03;;;;;;;2.08;100.00;99481.63;5061900;28;20660;-65
2022/03/09 04:08:42;;;;;;;42.70;23.97;;;;;;;2.05;100.00;99482.47;5067658;28;20207;-63
2022/03/09 04:11:09;;;;;;;51.17;25.50;;;;;;;2.07;100.00;99485.84;5073426;28;20210;-66
2022/03/09 04:13:36;;;;;;;46.47;26.10;;;;;;;2.09;100.00;99476.59;5071229;28;20193;-66
2022/03/09 04:16:02;;;;;;;49.73;26.27;;;;;;;2.09;100.00;99484.19;5054429;28;20291;-66
2022/03/09 04:18:29;;;;;;;46.07;24.70;;;;;;;2.15;100.00;99483.38;5062093;28;20719;-66
2022/03/09 04:20:56;;;;;;;49.23;25.87;;;;;;;2.19;100.00;99490.13;5074339;28;20200;-65
2022/03/09 04:23:25;;;;;;;49.40;25.87;;;;;;;2.14;100.00;99476.59;5074230;28;20802;-65
2022/03/09 04:25:51;;;;;;;50.40;26.83;;;;;;;2.13;100.00;99470.69;5062361;28;20580;-66
2022/03/09 04:28:18;;;;;;;47.60;25.90;;;;;;;2.21;100.00;99483.38;5053981;28;20664;-65
2022/03/09 04:30:45;;;;;;;46.63;24.93;;;;;;;2.19;100.00;99484.22;5054170;28;20291;-65
2022/03/09 04:33:12;;;;;;;50.27;25.50;;;;;;;2.05;100.00;99474.88;5054215;28;20193;-65
2022/03/09 04:35:39;;;;;;;43.47;25.17;;;;;;;2.10;100.00;99485.84;5053814;28;20212;-66
2022/03/09 04:38:06;;;;;;;49.97;26.83;;;;;;;2.02;100.00;99485.00;5069876;28;20286;-66
2022/03/09 04:40:34;;;;;;;49.63;25.87;;;;;;;2.11;100.00;99497.66;5073964;28;20196;-66
2022/03/09 04:43:01;;;;;;;45.93;26.27;;;;;;;2.13;100.00;99495.97;5073532;28;20299;-65
2022/03/09 04:45:28;;;;;;;49.63;26.50;;;;;;;2.16;100.00;99499.38;5073883;28;20283;-65
2022/03/09 04:47:55;;;;;;;49.17;25.63;;;;;;;2.19;100.00;99494.34;5073773;28;20204;-65
2022/03/09 04:50:22;;;;;;;46.97;24.97;;;;;;;2.20;100.00;99493.50;5073692;28;20210;-65
2022/03/09 04:52:49;;;;;;;46.00;25.57;;;;;;;2.26;100.00;99501.13;5064797;28;20229;-66
2022/03/09 04:55:16;;;;;;;47.90;26.50;;;;;;;2.31;100.00;99501.97;5053803;28;20280;-65
2022/03/09 04:57:44;;;;;;;47.83;25.90;;;;;;;2.33;100.00;99503.66;5053792;28;20748;-65
2022/03/09 05:00:12;;;;;;;46.20;26.10;;;;;;;2.31;100.00;99499.44;5053577;28;20193;-65
2022/03/09 05:02:39;;;;;;;49.10;27.07;;;;;;;2.29;100.00;99501.97;5056713;28;20687;-66
2022/03/09 05:05:07;;;;;;;52.03;26.73;;;;;;;2.23;100.00;99480.88;5062956;28;20829;-65
2022/03/09 05:07:34;;;;;;;45.93;26.33;;;;;;;2.27;100.00;99497.72;5062196;28;20628;-66
2022/03/09 05:10:01;;;;;;;52.47;27.53;;;;;;;2.25;100.00;99509.53;5064236;28;20278;-65
2022/03/09 05:12:28;;;;;;;46.13;25.40;;;;;;;2.20;100.00;99506.97;5066271;28;20200;-65
2022/03/09 05:14:56;;;;;;;48.83;27.03;;;;;;;2.14;100.00;99506.94;5068449;28;20720;-65
2022/03/09 05:17:23;;;;;;;55.47;30.40;;;;;;;2.04;100.00;99507.72;5051153;28;20193;-65
2022/03/09 05:19:50;;;;;;;55.33;27.67;;;;;;;2.02;100.00;99512.78;5052643;28;20284;-65
2022/03/09 05:22:17;;;;;;;42.07;25.10;;;;;;;1.98;100.00;99511.06;5059669;28;20209;-65
2022/03/09 05:24:44;;;;;;;52.10;26.90;;;;;;;2.01;100.00;99521.22;5058640;28;20663;-65
2022/03/09 05:27:11;;;;;;;49.77;27.63;;;;;;;2.02;100.00;99522.91;5054723;28;20196;-66
2022/03/09 05:29:38;;;;;;;50.60;25.47;;;;;;;1.98;100.00;99528.78;5073266;28;20675;-65
2022/03/09 05:32:07;;;;;;;45.63;25.83;;;;;;;1.95;100.00;99533.81;5071567;28;20204;-65
2022/03/09 05:34:34;;;;;;;44.23;24.90;;;;;;;1.96;100.00;99534.66;5071170;28;20203;-65
2022/03/09 05:37:01;;;;;;;50.13;27.97;;;;;;;1.90;100.00;99535.47;5071768;28;20211;-66
2022/03/09 05:39:28;;;;;;;45.10;25.60;;;;;;;1.85;100.00;99532.06;5060517;28;20197;-66
2022/03/09 05:41:55;;;;;;;41.97;24.37;;;;;;;1.86;100.00;99541.34;5052517;28;20201;-65
2022/03/09 05:44:22;;;;;;;42.60;24.23;;;;;;;1.80;100.00;99540.44;5052604;28;20216;-66
2022/03/09 05:46:50;;;;;;;42.37;24.30;;;;;;;1.74;100.00;99537.88;5052746;28;20724;-65
2022/03/09 05:49:18;;;;;;;55.53;25.47;;;;;;;1.66;100.00;99532.75;5052647;28;20216;-65
2022/03/09 05:51:45;;;;;;;51.93;26.13;;;;;;;1.70;100.00;99543.75;5052602;28;20297;-66
2022/03/09 05:54:12;;;;;;;47.70;25.13;;;;;;;1.74;100.00;99558.94;5052318;28;20280;-66
2022/03/09 05:56:39;;;;;;;39.30;23.60;;;;;;;1.73;100.00;99564.84;5052398;28;20220;-65
2022/03/09 05:59:05;;;;;;;43.60;24.57;;;;;;;1.76;100.00;99554.75;5058219;28;20210;-65
2022/03/09 06:01:32;;;;;;;45.40;25.37;;;;;;;1.77;100.00;99560.66;5053176;28;20291;-65
2022/03/09 06:04:01;;;;;;;46.83;27.07;;;;;;;1.63;100.00;99540.31;5060396;28;20220;-66
2022/03/09 06:06:29;;;;;;;48.83;27.07;;;;;;;1.83;100.00;99561.53;5063960;28;20257;-65
2022/03/09 06:08:56;;;;;;;49.67;26.77;;;;;;;1.93;100.00;99575.09;5052247;28;20292;-65
2022/03/09 06:11:23;;;;;;;51.30;26.30;;;;;;;2.00;100.00;99575.13;5069438;28;20291;-66
2022/03/09 06:13:50;;;;;;;45.97;24.97;;;;;;;2.05;100.00;99572.63;5072260;28;20227;-66
2022/03/09 06:16:17;;;;;;;48.83;25.87;;;;;;;2.09;100.00;99577.75;5071776;28;20721;-65
2022/03/09 06:18:46;;;;;;;55.27;27.40;;;;;;;2.09;100.00;99575.22;5071120;28;20196;-65
2022/03/09 06:21:13;;;;;;;51.17;27.60;;;;;;;2.06;100.00;99575.19;5071565;28;20645;-66
2022/03/09 06:23:41;;;;;;;52.03;28.70;;;;;;;2.05;100.00;99572.63;5071599;28;20319;-65
2022/03/09 06:26:08;;;;;;;52.87;29.13;;;;;;;2.03;100.00;99574.31;5071732;28;20215;-63
2022/03/09 06:28:35;;;;;;;56.53;29.37;;;;;;;1.94;100.00;99581.84;5071551;28;20200;-65
2022/03/09 06:31:02;;;;;;;49.83;26.00;;;;;;;1.64;100.00;99554.66;5071684;28;20200;-66
2022/03/09 06:33:29;;;;;;;48.80;25.67;;;;;;;1.64;100.00;99577.41;5071609;28;20196;-66
2022/03/09 06:35:56;;;;;;;46.93;27.27;;;;;;;1.64;100.00;99563.91;5052738;28;20291;-65
2022/03/09 06:38:23;;;;;;;51.10;29.30;;;;;;;1.59;100.00;99566.38;5051603;28;20283;-65
2022/03/09 06:40:51;;;;;;;53.17;27.27;;;;;;;1.56;100.00;99577.31;5051446;28;20280;-65
2022/03/09 06:43:18;;;;;;;43.47;26.10;;;;;;;1.48;100.00;99583.16;5063636;28;20306;-65
2022/03/09 06:45:45;;;;;;;46.33;25.83;;;;;;;1.52;100.00;99585.69;5060720;28;20226;-68
2022/03/09 06:48:11;;;;;;;51.43;26.40;;;;;;;1.44;100.00;99581.41;5069497;28;20204;-68
2022/03/09 06:50:38;;;;;;;53.53;28.03;;;;;;;1.52;100.00;99587.38;5057734;28;20196;-68
2022/03/09 06:53:05;;;;;;;47.63;27.70;;;;;;;1.46;100.00;99582.28;5064776;28;20695;-67
2022/03/09 06:55:32;;;;;;;53.07;26.03;;;;;;;1.48;100.00;99594.09;5070238;28;20210;-69
2022/03/09 06:58:01;;;;;;;69.23;34.20;;;;;;;1.45;100.00;99580.59;5060554;28;20587;-65
2022/03/09 07:00:28;;;;;;;53.47;28.63;;;;;;;1.47;100.00;99599.13;5061379;28;20207;-65
2022/03/09 07:02:56;;;;;;;46.70;26.30;;;;;;;1.52;100.00;99595.81;5059496;28;20291;-65
2022/03/09 07:05:23;;;;;;;50.77;24.33;;;;;;;1.53;100.00;99597.50;5051004;28;20204;-64
2022/03/09 07:07:50;;;;;;;45.27;25.57;;;;;;;1.52;100.00;99588.22;5060876;28;20207;-65
2022/03/09 07:10:17;;;;;;;46.53;24.77;;;;;;;1.56;100.00;99596.69;5057570;28;20724;-65
2022/03/09 07:12:45;;;;;;;46.53;24.63;;;;;;;1.55;100.00;99600.88;5063735;28;20672;-64
2022/03/09 07:15:15;;;;;;;42.67;24.03;;;;;;;1.54;100.00;99599.22;5057066;28;20387;-65
2022/03/09 07:17:42;;;;;;;46.10;25.33;;;;;;;1.50;100.00;99592.44;5053232;28;20197;-65
2022/03/09 07:20:10;;;;;;;42.93;24.23;;;;;;;1.53;100.00;99599.19;5053893;28;20224;-65
2022/03/09 07:22:37;;;;;;;40.77;24.17;;;;;;;1.57;100.00;99595.84;5057469;28;20290;-65
2022/03/09 07:25:04;;;;;;;41.67;24.03;;;;;;;1.60;100.00;99606.00;5067032;28;20227;-65
2022/03/09 07:27:31;;;;;;;47.83;25.77;;;;;;;1.64;100.00;99594.22;5068939;28;20199;-65
2022/03/09 07:29:58;;;;;;;41.73;24.80;;;;;;;1.69;100.00;99598.47;5064061;28;20295;-64
2022/03/09 07:32:26;;;;;;;45.73;25.50;;;;;;;1.68;100.00;99595.97;5056173;28;20200;-65
2022/03/09 07:34:53;;;;;;;47.77;24.40;;;;;;;1.67;100.00;99597.63;5064459;28;20204;-64
2022/03/09 07:37:20;;;;;;;43.07;24.47;;;;;;;1.67;100.00;99602.69;5058277;28;20211;-64
2022/03/09 07:39:47;;;;;;;48.57;24.00;;;;;;;1.60;100.00;99595.88;5051713;28;20201;-67
2022/03/09 07:42:14;;;;;;;43.53;24.27;;;;;;;1.62;100.00;99594.22;5062944;28;20208;-66
2022/03/09 07:44:41;;;;;;;39.97;22.80;;;;;;;1.63;100.00;99593.38;5058238;28;20307;-66
2022/03/09 07:47:08;;;;;;;43.63;24.03;;;;;;;1.74;100.00;99596.00;5058672;28;20236;-66
2022/03/09 07:49:37;;;;;;;43.00;24.20;;;;;;;1.77;100.00;99593.50;5056684;28;20204;-66
2022/03/09 07:52:06;;;;;;;40.60;22.50;;;;;;;1.77;100.00;99594.34;5058845;28;20210;-66
2022/03/09 07:54:33;;;;;;;36.03;21.57;;;;;;;1.76;100.00;99597.72;5061305;28;20200;-66
2022/03/09 07:57:01;;;;;;;41.63;24.00;;;;;;;1.80;100.00;99599.44;5064525;28;20771;-66
2022/03/09 07:59:28;;;;;;;42.20;23.03;;;;;;;1.84;100.00;99595.25;5056662;28;20209;-66
2022/03/09 08:01:55;;;;;;;47.70;25.93;;;;;;;1.86;100.00;99601.16;5066402;28;20217;-66
2022/03/09 08:04:23;;;;;;;43.33;24.43;;;;;;;1.92;100.00;99597.00;5062082;28;20350;-65
2022/03/09 08:06:53;;;;;;;44.37;25.60;;;;;;;2.01;100.00;99594.53;5058733;28;20208;-64
2022/03/09 08:09:20;;;;;;;39.03;23.47;;;;;;;2.07;100.00;99602.16;5056459;28;20213;-66
2022/03/09 08:11:47;;;;;;;43.30;24.70;;;;;;;2.08;100.00;99597.94;5049825;28;20204;-65
2022/03/09 08:14:16;;;;;;;43.90;24.33;;;;;;;2.17;100.00;99604.72;5057567;28;20275;-65
2022/03/09 08:16:43;;;;;;;45.83;26.67;;;;;;;2.23;100.00;99592.16;5061458;28;20247;-65
2022/03/09 08:19:10;;;;;;;44.90;25.37;;;;;;;2.32;100.00;99598.13;5053565;28;20303;-65
2022/03/09 08:21:37;;;;;;;44.80;25.30;;;;;;;2.33;100.00;99601.47;5058712;28;20623;-66
2022/03/09 08:24:06;;;;;;;47.53;25.37;;;;;;;2.39;100.00;99604.06;5057872;28;20220;-65
2022/03/09 08:26:33;;;;;;;42.30;24.57;;;;;;;2.40;100.00;99605.72;5057992;28;20211;-66
2022/03/09 08:29:01;;;;;;;46.17;25.40;;;;;;;2.47;100.00;99602.41;5064164;28;20223;-65
2022/03/09 08:31:28;;;;;;;46.37;26.43;;;;;;;2.52;100.00;99595.69;5057739;28;20231;-66
2022/03/09 08:33:55;;;;;;;43.57;22.97;;;;;;;2.60;100.00;99604.16;5057994;28;20197;-65
2022/03/09 08:36:22;;;;;;;34.80;22.40;;;;;;;2.52;100.00;99598.22;5060085;28;20204;-65
2022/03/09 08:38:49;;;;;;;43.57;24.20;;;;;;;2.57;100.00;99594.03;5066770;28;20207;-65
2022/03/09 08:41:17;;;;;;;42.07;24.60;;;;;;;2.57;100.00;99599.09;5061902;28;20649;-65
2022/03/09 08:43:44;;;;;;;39.73;24.07;;;;;;;2.54;100.00;99594.84;5062127;28;20250;-65
2022/03/09 08:46:12;;;;;;;40.33;22.80;;;;;;;2.58;100.00;99583.91;5057788;28;20204;-65
2022/03/09 08:48:39;;;;;;;42.93;23.03;;;;;;;2.58;100.00;99593.19;5063900;28;20200;-65
2022/03/09 08:51:07;;;;;;;36.73;21.47;;;;;;;2.65;100.00;99584.75;5065941;28;20315;-65
2022/03/09 08:53:34;;;;;;;37.40;22.13;;;;;;;2.74;100.00;99582.28;5057367;28;20197;-65
2022/03/09 08:56:01;;;;;;;38.90;22.83;;;;;;;2.83;100.00;99571.34;5063682;28;20619;-65
2022/03/09 08:58:31;;;;;;;35.43;21.27;;;;;;;2.91;100.00;99574.78;5069511;28;20632;-65
2022/03/09 09:00:58;;;;;;;40.87;24.37;;;;;;;2.94;100.00;99582.38;5059401;28;20196;-65
2022/03/09 09:03:25;;;;;;;39.53;23.67;;;;;;;3.01;100.00;99581.53;5067460;28;20204;-65
2022/03/09 09:05:53;;;;;;;35.57;21.17;;;;;;;3.17;100.00;99579.03;5062152;28;20227;-65
2022/03/09 09:08:20;;;;;;;39.73;24.77;;;;;;;3.26;100.00;99573.16;5063983;28;20200;-65
2022/03/09 09:10:48;;;;;;;36.27;22.87;;;;;;;3.43;100.00;99579.09;5071257;28;20294;-65
2022/03/09 09:13:15;;;;;;;54.23;26.87;;;;;;;3.56;100.00;99575.72;5065871;28;20203;-65
2022/03/09 09:15:44;;;;;;;40.33;23.27;;;;;;;3.65;100.00;99567.28;5064248;28;20291;-65
2022/03/09 09:18:10;;;;;;;41.07;23.23;;;;;;;3.78;100.00;99574.03;5068376;28;20205;-65
2022/03/09 09:20:37;;;;;;;34.53;21.07;;;;;;;3.67;100.00;99550.38;5058420;28;20262;-65
2022/03/09 09:23:06;;;;;;;36.20;22.67;;;;;;;3.92;100.00;99567.28;5069816;28;20204;-66
2022/03/09 09:25:33;;;;;;;37.20;22.00;;;;;;;3.93;100.00;99568.13;5064714;28;20285;-65
2022/03/09 09:28:00;;;;;;;36.40;21.83;;;;;;;3.97;100.00;99568.13;5065433;28;20239;-64
2022/03/09 09:30:30;;;;;;;32.57;20.83;;;;;;;3.96;100.00;99568.97;5062379;28;20291;-64
2022/03/09 09:32:58;;;;;;;32.57;19.77;;;;;;;3.91;100.00;99570.63;5058082;28;20287;-64
2022/03/09 09:35:25;;;;;;;29.07;19.10;;;;;;;4.06;100.00;99570.66;5056681;28;20384;-63
2022/03/09 09:37:52;;;;;;;29.93;19.80;;;;;;;4.17;100.00;99575.69;5061914;28;20739;-64
2022/03/09 09:40:19;;;;;;;34.30;21.53;;;;;;;4.33;100.00;99573.97;5066837;28;20661;-65
2022/03/09 09:42:46;;;;;;;31.73;20.57;;;;;;;4.45;100.00;99562.09;5060935;28;20201;-64
2022/03/09 09:45:13;;;;;;;32.67;20.03;;;;;;;4.60;100.00;99566.28;5055430;28;20220;-64
2022/03/09 09:47:40;;;;;;;35.50;21.20;;;;;;;4.81;100.00;99567.88;5060225;28;20216;-65
2022/03/09 09:50:13;;;;;;;32.77;20.03;;;;;;;4.81;100.00;99573.81;5065294;28;20664;-63
2022/03/09 09:52:42;;;;;;;29.60;19.20;;;;;;;4.84;100.00;99567.88;5060863;28;20278;-63
2022/03/09 09:55:09;;;;;;;24.00;17.40;;;;;;;4.70;100.00;99545.91;5067501;28;20690;-63
2022/03/09 09:57:37;;;;;;;27.13;18.17;;;;;;;4.95;100.00;99569.50;5045809;28;20311;-63
2022/03/09 10:00:06;;;;;;;27.40;18.03;;;;;;;4.97;100.00;99560.19;5048228;28;20303;-63
2022/03/09 10:02:33;;;;;;;24.83;18.97;;;;;;;5.04;100.00;99551.66;5041344;28;20291;-62
2022/03/09 10:05:00;;;;;;;26.13;18.63;;;;;;;5.16;100.00;99561.78;5039724;28;20214;-63
2022/03/09 10:07:28;;;;;;;23.97;17.17;;;;;;;5.22;100.00;99561.75;5035810;28;20294;-64
2022/03/09 10:09:55;;;;;;;24.67;15.73;;;;;;;5.24;100.00;99569.34;5047105;28;20688;-63
2022/03/09 10:12:28;;;;;;;38.10;23.37;;;;;;;5.33;100.00;99568.47;5039271;28;20205;-63
2022/03/09 10:14:56;;;;;;;27.60;17.17;;;;;;;5.53;100.00;99551.34;5046962;28;20196;-63
2022/03/09 10:17:25;;;;;;;25.67;17.43;;;;;;;5.64;100.00;99554.66;5037320;28;20205;-63
2022/03/09 10:19:54;;;;;;;25.20;16.70;;;;;;;5.80;100.00;99557.06;5033017;28;20611;-63
2022/03/09 10:22:29;;;;;;;24.67;16.73;;;;;;;5.87;100.00;99555.34;5046302;28;20554;-63
2022/03/09 10:24:58;;;;;;;21.97;15.87;;;;;;;5.96;100.00;99555.25;5039911;28;20220;-63
2022/03/09 10:27:37;;;;;;;23.07;15.83;;;;;;;6.13;100.00;99561.03;5044991;28;20216;-63
2022/03/09 10:30:06;;;;;;;16.13;13.23;;;;;;;6.22;100.00;99555.84;5043684;28;20215;-63
2022/03/09 10:32:52;;;;;;;19.77;14.67;;;;;;;6.14;100.00;99555.06;5040539;28;20579;-63
2022/03/09 10:35:21;;;;;;;18.80;14.67;;;;;;;6.11;100.00;99557.66;5045687;28;20584;-64
2022/03/09 10:37:50;;;;;;;23.73;16.33;;;;;;;6.24;100.00;99551.59;5039912;28;20204;-64
2022/03/09 10:40:19;;;;;;;14.57;12.70;;;;;;;6.40;100.00;99548.91;5037863;28;20216;-64
2022/03/09 10:42:46;;;;;;;19.50;14.60;;;;;;;6.45;100.00;99554.75;5048597;28;20649;-63
2022/03/09 10:45:14;;;;;;;31.80;23.13;;;;;;;6.40;95.99;99556.53;5041358;28;20623;-64
2022/03/09 10:47:44;;;;;;;40.67;28.07;;;;;;;6.45;94.98;99552.22;5040937;28;20278;-63
2022/03/09 10:50:17;;;;;;;26.23;18.13;;;;;;;6.33;93.85;99543.84;5042160;28;20680;-63
2022/03/09 10:52:51;;;;;;;27.33;16.53;;;;;;;6.45;95.25;99542.03;5041252;28;20200;-64
2022/03/09 10:55:23;;;;;;;24.23;16.97;;;;;;;6.55;100.00;99533.44;5042318;28;20201;-64
2022/03/09 10:57:50;;;;;;;37.57;25.17;;;;;;;6.50;98.46;99514.78;5058867;28;20303;-64
2022/03/09 11:00:34;;;;;;;46.27;28.77;;;;;;;6.57;92.24;99521.50;5057207;28;20207;-64
2022/03/09 11:03:06;;;;;;;21.07;15.20;;;;;;;6.42;90.91;99527.63;5066642;28;20287;-64
2022/03/09 11:05:34;;;;;;;16.93;13.77;;;;;;;6.63;96.49;99516.34;5063644;28;20277;-63
2022/03/09 11:08:04;;;;;;;22.07;16.83;;;;;;;6.70;99.53;99502.66;5060884;28;20211;-64
2022/03/09 11:10:31;;;;;;;20.53;15.97;;;;;;;6.86;100.00;99509.25;5055895;28;20204;-63
2022/03/09 11:12:58;;;;;;;39.00;24.87;;;;;;;6.86;98.10;99507.53;5062714;28;20577;-64
2022/03/09 11:15:26;;;;;;;28.33;19.20;;;;;;;6.85;91.06;99512.63;5062901;28;20205;-64
2022/03/09 11:17:54;;;;;;;80.77;42.97;;;;;;;6.94;90.73;99506.59;5061883;28;20204;-64
2022/03/09 11:20:21;;;;;;;17.27;14.47;;;;;;;6.93;93.23;99500.66;5054364;28;21526;-64